• Join FlightAware (Why Join?)
  • Login
  • US Flag 
08:39PM EDT


 

Airport Tracker/Info


-or-


 

Live Flight TrackerFlight Track Log ✈ N1455R ✈ 05-Jul-2013 ✈ KGON - KMMU

Flight Track Log - Related Links

Times and Time Zones

All times are in EDT time to prevent confusion due to time zone crossing. See the N1455R flight status page for this flight to view local times or setup timezone preferences in your user account.

Time Position Orientation Groundspeed Altitude Reporting Facility
EDT Latitude Longitude Course Direction KTS MPH feet Rate Location/Type
04:57PM 41.3473 -72.0709 312° West  Level FlightAware Approximate
04:58PM 41.3645 -72.0967 312° West  Level FlightAware Approximate
04:59PM 41.3817 -72.1225 312° West  Level FlightAware Approximate
05:00PM 41.3989 -72.1483 312° West  Level FlightAware Approximate
05:01PM 41.4048 -72.1596 304° West  Level FlightAware Approximate
05:02PM 41.4197 -72.1878 312° West  Level FlightAware Approximate
05:03PM 41.4369 -72.2136 312° West  Level FlightAware Approximate
05:04PM 41.4538 -72.2397 309° West  Level FlightAware Approximate
05:05PM 41.4700 -72.2667 309° West  Level FlightAware Approximate
05:06PM 41.4862 -72.2937 309° West  Level FlightAware Approximate
05:07PM 41.5021 -72.3210 304° West  Level FlightAware Approximate
05:08PM 41.5165 -72.3497 304° West  Level FlightAware Approximate
05:09PM 41.5333 -72.3761 310° West  Level FlightAware Approximate
05:10PM 41.5501 -72.4024 310° West  Level FlightAware Approximate
05:11PM 41.5669 -72.4288 310° West  Level FlightAware Approximate
05:12PM 41.5837 -72.4552 310° West  Level FlightAware Approximate
05:13PM 41.6004 -72.4816 310° West  Level FlightAware Approximate
05:14PM 41.6172 -72.5079 310° West  Level FlightAware Approximate
05:15PM 41.6326 -72.5342 222° Southwest  Level FlightAware Approximate
05:16PM 41.6133 -72.5574 222° Southwest  Level FlightAware Approximate
05:17PM 41.5941 -72.5806 222° Southwest  Level FlightAware Approximate
05:18PM 41.5748 -72.6037 222° Southwest  Level FlightAware Approximate
05:19PM 41.5555 -72.6269 222° Southwest  Level FlightAware Approximate
05:20PM 41.5363 -72.6500 222° Southwest  Level FlightAware Approximate
05:21PM 41.5170 -72.6731 222° Southwest  Level FlightAware Approximate
05:22PM 41.4977 -72.6962 222° Southwest  Level FlightAware Approximate
05:23PM 41.4784 -72.7193 222° Southwest  Level FlightAware Approximate
05:24PM 41.4591 -72.7424 222° Southwest  Level FlightAware Approximate
05:25PM 41.4399 -72.7655 222° Southwest  Level FlightAware Approximate
05:26PM 41.4206 -72.7886 222° Southwest  Level FlightAware Approximate
05:27PM 41.4014 -72.8117 222° Southwest  Level FlightAware Approximate
05:28PM 41.3831 -72.8355 262° West  Level FlightAware Approximate
05:29PM 41.3797 -72.8697 262° West  Level FlightAware Approximate
05:30PM 41.3763 -72.9039 262° West  Level FlightAware Approximate
05:31PM 41.3729 -72.9382 262° West  Level FlightAware Approximate
05:32PM 41.3694 -72.9724 262° West  Level FlightAware Approximate
05:33PM 41.3655 -73.0064 256° West  Level FlightAware Approximate
05:34PM 41.3592 -73.0399 256° West  Level FlightAware Approximate
05:35PM 41.3530 -73.0734 256° West  Level FlightAware Approximate
05:36PM 41.3467 -73.1069 256° West  Level FlightAware Approximate
05:37PM 41.3404 -73.1404 256° West  Level FlightAware Approximate
05:38PM 41.3341 -73.1739 256° West  Level FlightAware Approximate
05:39PM 41.3279 -73.2073 256° West  Level FlightAware Approximate
05:40PM 41.3215 -73.2408 256° West  Level FlightAware Approximate
05:41PM 41.3154 -73.2743 258° West  Level FlightAware Approximate
05:42PM 41.3098 -73.3080 258° West  Level FlightAware Approximate
05:43PM 41.3043 -73.3416 258° West  Level FlightAware Approximate
05:44PM 41.2987 -73.3753 258° West  Level FlightAware Approximate
05:45PM 41.2931 -73.4090 258° West  Level FlightAware Approximate
05:46PM 41.2875 -73.4426 257° West  Level FlightAware Approximate
05:47PM 41.2818 -73.4763 257° West  Level FlightAware Approximate
05:48PM 41.2762 -73.5099 257° West  Level FlightAware Approximate
05:49PM 41.2705 -73.5435 257° West  Level FlightAware Approximate
05:50PM 41.2661 -73.5774 266° West  Level FlightAware Approximate
05:51PM 41.2644 -73.6118 266° West  Level FlightAware Approximate
05:52PM 41.2626 -73.6462 266° West  Level FlightAware Approximate
05:53PM 41.2608 -73.6805 266° West  Level FlightAware Approximate
05:54PM 41.2590 -73.7149 266° West  Level FlightAware Approximate
05:55PM 41.2572 -73.7493 266° West  Level FlightAware Approximate
05:55PM 41.3203 -72.0586 270° West 76 87 500  Level Boston Center
05:56PM 41.2553 -73.7837 266° West  Level FlightAware Approximate
05:56PM 41.3411 -72.0944 308° West 95 109 1,600  Level Boston Center
05:57PM 41.2535 -73.8180 266° West  Level FlightAware Approximate
05:57PM 41.3578 -72.1111 323° Northwest 95 109 2,300  Level Boston Center
05:58PM 41.2517 -73.8524 266° West  Level FlightAware Approximate
05:58PM 41.3789 -72.1331 322° Northwest 86 99 3,100  Level Boston Center
05:59PM 41.2492 -73.8866 252° West  Level FlightAware Approximate
05:59PM 41.3956 -72.1578 312° West 85 98 3,800  Level Boston Center
06:00PM 41.2410 -73.9193 252° West  Level FlightAware Approximate
06:00PM 41.4103 -72.1800 311° West 79 91 4,500  Level Boston Center
06:01PM 41.2333 -73.9521 270° West  Level FlightAware Approximate
06:01PM 41.4247 -72.2019 311° West 84 97 5,100  Level Boston Center
06:02PM 41.4353 -72.2186 310° West 88 101 5,600 660 Climbing Boston Center
06:03PM 41.4458 -72.2353 310° West 90 104 6,000 600 Climbing Boston Center
06:04PM 41.4583 -72.2572 307° West 87 100 6,600 660 Climbing Boston Center
06:05PM 41.4708 -72.2822 304° West 80 92 7,300 600 Climbing Boston Center
06:06PM 41.4894 -72.3042 319° Northwest 91 105 7,900 300 Climbing Boston Center
06:07PM 41.5106 -72.3403 308° West 129 148 8,000  Climbing Boston Center
06:08PM 41.5356 -72.3792 311° West 128 147 8,000  Level Boston Center
06:09PM 41.5564 -72.4153 308° West 123 142 8,000  Level Boston Center
06:10PM 41.5625 -72.4511 283° West 117 135 8,000  Level Boston Center
06:11PM 41.5522 -72.4928 252° West 118 136 8,000 -300 Level Boston Center
06:12PM 41.5333 -72.5667 251° West 140 161 7,300 -480 Descending New York TRACON
06:13PM 41.5167 -72.6167 246° West 135 155 6,800 -540 Descending New York TRACON
06:14PM 41.5167 -72.6667 270° West 137 158 6,300 -420 Descending New York TRACON
06:15PM 41.5000 -72.7167 246° West 132 152 6,000 -180 Descending New York TRACON
06:16PM 41.4833 -72.7500 236° Southwest 107 123 6,000  Level New York TRACON
06:17PM 41.4833 -72.8000 270° West 117 135 6,000  Level New York TRACON
06:18PM 41.4667 -72.8333 236° Southwest 120 138 6,000  Level New York TRACON
06:19PM 41.4500 -72.8833 246° West 114 131 6,000  Level New York TRACON
06:20PM 41.4500 -72.9167 270° West 124 143 6,000  Level New York TRACON
06:21PM 41.4333 -72.9667 246° West 117 135 6,000  Level New York TRACON
06:22PM 41.4333 -73.0000 270° West 119 137 6,000  Level New York TRACON
06:23PM 41.4167 -73.0333 236° Southwest 116 133 6,000  Level New York TRACON
06:24PM 41.4000 -73.0833 246° West 108 124 6,000  Level New York TRACON
06:25PM 41.4000 -73.1167 270° West 114 131 6,000  Level New York TRACON
06:26PM 41.3833 -73.1500 236° Southwest 113 130 6,000  Level New York TRACON
06:27PM 41.3833 -73.2000 270° West 113 130 6,000  Level New York TRACON
06:28PM 41.3667 -73.2333 236° Southwest 111 128 6,000  Level New York TRACON
06:29PM 41.3500 -73.2833 246° West 116 133 6,000  Level New York TRACON
06:30PM 41.3500 -73.3167 270° West 115 132 6,000  Level New York TRACON
06:31PM 41.3333 -73.3667 246° West 111 128 6,100  Climbing New York TRACON
06:32PM 41.3333 -73.4000 270° West 110 127 6,100 -60 Level New York TRACON
06:33PM 41.3167 -73.4333 236° Southwest 116 133 6,000 -60 Descending New York TRACON
06:34PM 41.3000 -73.4833 246° West 118 136 6,000  Level New York TRACON
06:35PM 41.3000 -73.5167 270° West 110 127 6,000  Level New York TRACON
06:36PM 41.2833 -73.5500 236° Southwest 114 131 6,000 -120 Level New York TRACON
06:37PM 41.2833 -73.6000 270° West 123 142 5,800 -300 Descending New York TRACON
06:38PM 41.2667 -73.6500 246° West 123 142 5,500 -300 Descending New York TRACON
06:39PM 41.2667 -73.6833 270° West 123 142 5,200 -240 Descending New York TRACON
06:40PM 41.2667 -73.7333 270° West 118 136 5,100 -120 Descending New York TRACON
06:41PM 41.2667 -73.7833 270° West 119 137 5,000 -180 Descending New York TRACON
06:42PM 41.2500 -73.8167 236° Southwest 127 146 4,800 -360 Descending New York TRACON
06:43PM 41.2500 -73.8667 270° West 132 152 4,300 -420 Descending New York TRACON
06:44PM 41.2500 -73.9167 270° West 131 151 4,000 -180 Descending New York TRACON
06:45PM 41.2500 -73.9667 270° West 117 135 4,000  Level New York TRACON
06:46PM 41.2333 -74.0000 236° Southwest 115 132 4,000  Level New York TRACON
06:47PM 41.2167 -74.0333 236° Southwest 115 132 4,000 -240 Level New York TRACON
06:48PM 41.1833 -74.0500 201° Southwest 127 146 3,600 -480 Descending New York TRACON
06:49PM 41.1500 -74.0833 217° Southwest 139 160 3,100 -300 Descending New York TRACON
06:50PM 41.1333 -74.1000 217° Southwest 121 139 3,100 -60 Level New York TRACON
06:51PM 41.1000 -74.1333 217° Southwest 125 144 3,000 -60 Descending New York TRACON
06:52PM 41.0833 -74.1500 217° Southwest 116 133 3,000 -60 Level New York TRACON
06:53PM 41.0500 -74.1833 217° Southwest 117 135 2,900 -300 Descending New York TRACON
06:54PM 41.0167 -74.2000 201° Southwest 126 145 2,400 -420 Descending New York TRACON
06:55PM 41.0000 -74.2333 236° Southwest 120 138 2,100 -240 Descending New York TRACON
06:56PM 40.9667 -74.2500 201° Southwest 109 125 2,000 -60 Descending New York TRACON
06:57PM 40.9500 -74.2667 217° Southwest 103 119 2,000  Level New York TRACON
06:58PM 40.9167 -74.3000 217° Southwest 102 117 2,000  Level New York TRACON
06:59PM 40.9000 -74.3167 217° Southwest 107 123 2,000  Level New York TRACON
07:00PM 40.8833 -74.3333 217° Southwest 107 123 2,000 -300 Level New York TRACON
07:01PM 40.8500 -74.3667 217° Southwest 109 125 1,400 -600 Descending New York TRACON
07:04PM 40.8152 -74.3841 201° Southwest  Level FlightAware Approximate
07:11PM 40.7833 -74.4000 163° South  Level FlightAware Approximate
07:12PM 40.7993 -74.4149 163° South  Level Estimated
07:13PM 40.7993 -74.4149 163° South  Level Estimated
07:14PM 40.7993 -74.4149 163° South  Level Estimated